Time;durP1;ratioP1;P1;durP2;ratioP2;P2;SDS_P1;SDS_P2;PMS_P1;PMS_P2;Temp;Humidity;BMP_temperature;BMP_pressure;BME280_temperature;BME280_humidity;BME280_pressure;Samples;Min_cycle;Max_cycle;Signal;HPM_P1;HPM_P2
2023/07/11 00:02:01;;;;;;;3.00;2.17;;;;;;;20.60;75.32;100960.19;4999283;28;20250;-84
2023/07/11 00:04:28;;;;;;;2.40;2.00;;;;;;;20.56;75.20;100976.34;4998929;28;20200;-83
2023/07/11 00:06:55;;;;;;;2.27;1.60;;;;;;;20.53;74.91;100976.47;5002763;28;20243;-83
2023/07/11 00:09:22;;;;;;;2.77;2.10;;;;;;;20.48;75.34;100979.38;4998561;28;20203;-84
2023/07/11 00:11:48;;;;;;;2.67;1.97;;;;;;;20.47;75.52;100974.16;4998708;28;20203;-83
2023/07/11 00:14:15;;;;;;;4.03;1.60;;;;;;;20.46;75.11;100978.59;4997950;28;20246;-83
2023/07/11 00:16:41;;;;;;;3.40;1.90;;;;;;;20.39;75.63;100972.75;4990730;28;20272;-82
2023/07/11 00:19:07;;;;;;;4.10;1.73;;;;;;;20.38;75.27;100978.16;4999834;28;20290;-83
2023/07/11 00:21:35;;;;;;;5.07;1.90;;;;;;;20.28;76.38;100955.66;5003160;28;20203;-83
2023/07/11 00:24:03;;;;;;;4.03;1.60;;;;;;;20.19;76.84;100936.66;5002131;28;20199;-83
2023/07/11 00:26:30;;;;;;;3.13;1.80;;;;;;;20.17;76.44;100943.81;5002214;28;20223;-82
2023/07/11 00:28:56;;;;;;;1.97;1.67;;;;;;;20.18;76.68;100934.09;5002746;28;20720;-83
2023/07/11 00:31:22;;;;;;;2.90;2.10;;;;;;;20.18;76.20;100942.91;5002604;28;20285;-83
2023/07/11 00:33:49;;;;;;;4.97;1.97;;;;;;;20.13;76.40;100936.97;5001904;28;20220;-83
2023/07/11 00:36:15;;;;;;;4.20;2.00;;;;;;;20.08;77.06;100928.41;5002622;28;20231;-81
2023/07/11 00:38:43;;;;;;;2.43;1.70;;;;;;;20.04;77.35;100921.53;5001205;28;20227;-82
2023/07/11 00:41:09;;;;;;;2.83;1.93;;;;;;;19.97;77.41;100920.13;5002332;28;20269;-83
2023/07/11 00:43:36;;;;;;;3.47;1.97;;;;;;;19.91;77.59;100907.19;5001180;28;20258;-82
2023/07/11 00:46:07;;;;;;;2.20;1.83;;;;;;;19.86;77.79;100907.44;5002015;28;20196;-83
2023/07/11 00:48:35;;;;;;;1.77;1.60;;;;;;;19.83;77.91;100896.97;5001966;28;20250;-83
2023/07/11 00:51:02;;;;;;;2.07;1.80;;;;;;;19.79;78.63;100895.41;5002035;28;20200;-82
2023/07/11 00:53:30;;;;;;;3.80;2.00;;;;;;;19.73;79.00;100877.19;5001499;28;20224;-83
2023/07/11 00:56:06;;;;;;;3.20;2.07;;;;;;;19.74;78.77;100878.88;5001667;28;20191;-83
2023/07/11 00:58:36;;;;;;;2.70;2.03;;;;;;;19.73;78.83;100878.03;5008686;28;20636;-83
2023/07/11 01:01:02;;;;;;;2.63;1.97;;;;;;;19.70;78.63;100885.25;4982356;28;20206;-83
2023/07/11 01:03:29;;;;;;;2.60;1.87;;;;;;;19.73;78.42;100871.88;4982898;28;20208;-83
2023/07/11 01:05:57;;;;;;;2.13;1.97;;;;;;;19.70;78.24;100885.25;4982548;28;20196;-84
2023/07/11 01:08:23;;;;;;;1.73;1.63;;;;;;;19.66;78.44;100876.59;4996546;28;20247;-82
2023/07/11 01:10:50;;;;;;;2.10;1.70;;;;;;;19.52;78.99;100866.69;5011202;28;20204;-83
2023/07/11 01:13:17;;;;;;;2.17;1.53;;;;;;;19.49;78.95;100861.53;5001828;28;20275;-83
2023/07/11 01:15:44;;;;;;;4.10;1.80;;;;;;;19.50;79.02;100857.09;5001849;28;20296;-83
2023/07/11 01:18:11;;;;;;;2.33;1.70;;;;;;;19.41;79.11;100861.91;5001859;28;20227;-84
2023/07/11 01:20:37;;;;;;;2.80;1.90;;;;;;;19.32;78.65;100864.16;5001535;28;20650;-83
2023/07/11 01:23:05;;;;;;;3.77;2.10;;;;;;;19.25;78.75;100864.47;5000278;28;20238;-82
2023/07/11 01:25:31;;;;;;;2.73;1.60;;;;;;;19.15;79.86;100849.09;5001777;28;20231;-83
2023/07/11 01:27:58;;;;;;;1.67;1.57;;;;;;;19.11;80.16;100826.34;5000879;28;20221;-82
2023/07/11 01:30:25;;;;;;;2.83;2.00;;;;;;;19.12;80.09;100822.78;5001951;28;20211;-82
2023/07/11 01:32:51;;;;;;;1.97;1.77;;;;;;;19.09;80.49;100818.50;5001329;28;20204;-81
2023/07/11 01:35:18;;;;;;;3.40;1.60;;;;;;;19.11;80.88;100807.81;5002543;28;20726;-83
2023/07/11 01:37:45;;;;;;;2.37;1.60;;;;;;;19.09;81.15;100801.75;4999506;28;20224;-83
2023/07/11 01:40:13;;;;;;;3.53;1.60;;;;;;;19.04;81.44;100783.47;4985546;28;20208;-83
2023/07/11 01:42:41;;;;;;;6.13;1.77;;;;;;;19.05;81.89;100774.59;4999020;28;20258;-82
2023/07/11 01:45:10;;;;;;;6.80;1.70;;;;;;;19.09;82.30;100764.69;5001434;28;20211;-82
2023/07/11 01:47:36;;;;;;;2.43;2.10;;;;;;;19.09;82.26;100762.06;5000353;28;20796;-83
2023/07/11 01:50:02;;;;;;;2.13;1.90;;;;;;;19.14;82.34;100762.69;5009795;28;20222;-83
2023/07/11 01:52:29;;;;;;;3.50;1.87;;;;;;;19.09;82.50;100757.66;5000033;28;20219;-80
2023/07/11 01:54:55;;;;;;;2.50;1.80;;;;;;;19.15;82.24;100761.78;5001260;28;20591;-84
2023/07/11 01:57:23;;;;;;;2.50;1.67;;;;;;;19.15;82.29;100765.28;5001140;28;20762;-83
2023/07/11 01:59:51;;;;;;;3.43;1.80;;;;;;;19.15;82.11;100767.06;5000776;28;20207;-83
2023/07/11 02:02:17;;;;;;;3.40;1.70;;;;;;;19.11;82.63;100762.84;5000844;28;20207;-83
2023/07/11 02:04:45;;;;;;;5.07;2.20;;;;;;;19.09;82.80;100759.41;5001019;28;20226;-84
2023/07/11 02:07:11;;;;;;;1.87;1.70;;;;;;;19.07;82.74;100756.88;4999672;28;20227;-83
2023/07/11 02:09:38;;;;;;;2.77;1.80;;;;;;;19.07;82.55;100761.28;5001110;28;20227;-84
2023/07/11 02:12:05;;;;;;;2.13;1.80;;;;;;;19.04;83.13;100763.13;5000315;28;20624;-83
2023/07/11 02:14:36;;;;;;;3.40;1.80;;;;;;;19.00;83.31;100751.00;4999708;28;20230;-83
2023/07/11 02:17:03;;;;;;;2.03;1.90;;;;;;;18.99;82.77;100767.81;5000113;28;20698;-83
2023/07/11 02:19:29;;;;;;;2.20;2.00;;;;;;;18.92;82.36;100774.31;4999986;28;20231;-82
2023/07/11 02:21:56;;;;;;;3.40;1.90;;;;;;;18.85;83.03;100770.28;5000175;28;20677;-84
2023/07/11 02:24:22;;;;;;;3.57;1.80;;;;;;;18.84;82.71;100765.91;4999635;28;20203;-83
2023/07/11 02:26:48;;;;;;;2.23;2.03;;;;;;;18.87;82.38;100778.13;4980442;28;20709;-83
2023/07/11 02:29:15;;;;;;;2.47;2.27;;;;;;;18.83;82.19;100793.31;4980467;28;20258;-83
2023/07/11 02:31:43;;;;;;;4.73;2.30;;;;;;;18.79;82.38;100776.72;4980165;28;20283;-83
2023/07/11 02:34:10;;;;;;;5.10;2.40;;;;;;;18.75;82.21;100788.34;4994694;28;20262;-84
2023/07/11 02:36:37;;;;;;;2.90;2.00;;;;;;;18.63;82.71;100778.31;5000452;28;20271;-84
2023/07/11 02:39:04;;;;;;;2.47;1.87;;;;;;;18.61;82.91;100766.97;5000745;28;20211;-85
2023/07/11 02:41:30;;;;;;;2.00;1.80;;;;;;;18.54;82.62;100737.31;5001201;28;20648;-84
2023/07/11 02:43:57;;;;;;;2.00;1.80;;;;;;;18.51;82.87;100765.69;4999602;28;20646;-84
2023/07/11 02:46:24;;;;;;;3.20;2.17;;;;;;;18.45;83.26;100751.84;5016583;28;20231;-85
2023/07/11 02:48:52;;;;;;;2.20;2.00;;;;;;;18.44;83.11;100747.47;5011357;28;20203;-81
2023/07/11 02:51:18;;;;;;;1.80;1.70;;;;;;;18.45;83.21;100745.66;5002644;28;20214;-84
2023/07/11 02:53:45;;;;;;;5.10;2.00;;;;;;;18.46;83.46;100760.63;5009691;28;20229;-85
2023/07/11 02:56:11;;;;;;;3.00;2.57;;;;;;;18.41;83.79;100742.34;5006702;28;20204;-83
2023/07/11 02:58:37;;;;;;;2.07;1.70;;;;;;;18.46;83.68;100742.97;4999720;28;20578;-84
2023/07/11 03:01:04;;;;;;;2.33;1.60;;;;;;;18.49;83.74;100744.59;4999853;28;20234;-82
2023/07/11 03:03:31;;;;;;;2.33;2.13;;;;;;;18.51;83.70;100733.97;5000161;28;20226;-84
2023/07/11 03:05:59;;;;;;;2.97;1.90;;;;;;;18.51;84.21;100736.59;5004722;28;20649;-84
2023/07/11 03:08:26;;;;;;;4.87;2.33;;;;;;;18.51;84.07;100736.59;4993053;28;20204;-85
2023/07/11 03:10:53;;;;;;;2.10;1.90;;;;;;;18.52;84.14;100727.75;5014574;28;20235;-83
2023/07/11 03:13:19;;;;;;;2.33;1.80;;;;;;;18.53;84.35;100719.75;4999733;28;20226;-84
2023/07/11 03:15:45;;;;;;;2.10;1.93;;;;;;;18.50;84.17;100722.53;5000599;28;20253;-84
2023/07/11 03:18:13;;;;;;;2.03;1.87;;;;;;;18.50;84.77;100711.13;5001100;28;20219;-84
2023/07/11 03:20:41;;;;;;;3.77;2.30;;;;;;;18.50;85.42;100698.75;4999877;28;20231;-84
2023/07/11 03:23:11;;;;;;;2.37;1.80;;;;;;;18.48;85.25;100691.81;4999945;28;20207;-84
2023/07/11 03:25:38;;;;;;;2.00;1.87;;;;;;;18.45;86.00;100687.53;5000368;28;20211;-84
2023/07/11 03:28:05;;;;;;;3.53;2.07;;;;;;;18.45;86.37;100658.44;4999784;28;20246;-83
2023/07/11 03:30:32;;;;;;;2.40;2.20;;;;;;;18.43;86.38;100673.53;5000947;28;20207;-84
2023/07/11 03:32:58;;;;;;;2.30;1.97;;;;;;;18.42;86.35;100671.81;5000309;28;20200;-84
2023/07/11 03:35:24;;;;;;;2.87;2.03;;;;;;;18.43;85.98;100673.53;5000472;28;20231;-84
2023/07/11 03:37:51;;;;;;;7.03;2.83;;;;;;;18.44;85.86;100686.66;4999259;28;20235;-84
2023/07/11 03:40:19;;;;;;;3.73;2.23;;;;;;;18.40;84.90;100697.47;4999873;28;20207;-84
2023/07/11 03:42:45;;;;;;;3.67;3.03;;;;;;;18.34;84.90;100698.63;4999707;28;20211;-84
2023/07/11 03:45:12;;;;;;;2.70;2.20;;;;;;;18.35;84.93;100704.75;4992687;28;20196;-84
2023/07/11 03:47:39;;;;;;;2.10;1.90;;;;;;;18.30;85.20;100697.06;4994150;23;20224;-83
2023/07/11 03:50:06;;;;;;;4.13;2.17;;;;;;;18.31;85.58;100690.81;4976736;28;20196;-84
2023/07/11 03:52:34;;;;;;;2.13;1.93;;;;;;;18.28;86.06;100680.41;4975369;28;20571;-83
2023/07/11 03:55:00;;;;;;;5.37;2.17;;;;;;;18.25;85.96;100672.63;4960690;28;20224;-83
2023/07/11 03:57:28;;;;;;;2.03;1.80;;;;;;;18.27;85.57;100668.09;4984114;28;20251;-84
2023/07/11 03:59:54;;;;;;;5.73;2.37;;;;;;;18.29;85.50;100689.19;4958567;28;20201;-84
2023/07/11 04:02:20;;;;;;;5.83;2.57;;;;;;;18.21;85.56;100690.38;4963569;28;20208;-84
2023/07/11 04:04:47;;;;;;;3.40;2.33;;;;;;;18.22;86.05;100673.63;4976802;28;20200;-84
2023/07/11 04:07:13;;;;;;;5.27;2.30;;;;;;;18.26;86.16;100675.19;4976030;28;20247;-84
2023/07/11 04:09:40;;;;;;;3.30;1.83;;;;;;;18.26;86.71;100664.63;4976029;28;20223;-84
2023/07/11 04:12:08;;;;;;;4.37;2.10;;;;;;;18.29;87.35;100646.91;4976705;28;20255;-83
2023/07/11 04:14:35;;;;;;;5.23;2.03;;;;;;;18.31;87.79;100637.97;4975863;28;20220;-83
2023/07/11 04:17:02;;;;;;;2.80;2.00;;;;;;;18.34;88.22;100621.13;4976430;28;20216;-83
2023/07/11 04:19:28;;;;;;;2.77;1.90;;;;;;;18.34;88.13;100618.47;4976809;28;20262;-84
2023/07/11 04:21:54;;;;;;;4.63;2.17;;;;;;;18.38;88.43;100612.97;4975908;28;20212;-82
2023/07/11 04:24:21;;;;;;;3.50;2.10;;;;;;;18.38;89.11;100594.47;4961053;28;20205;-83
2023/07/11 04:26:47;;;;;;;3.07;2.50;;;;;;;18.42;88.90;100597.81;4974873;28;20204;-84
2023/07/11 04:29:13;;;;;;;3.30;2.00;;;;;;;18.44;88.96;100594.16;4976531;28;20196;-82
2023/07/11 04:31:41;;;;;;;5.87;2.30;;;;;;;18.50;88.36;100600.09;4976316;28;20263;-83
2023/07/11 04:34:07;;;;;;;2.70;2.00;;;;;;;18.52;87.53;100617.56;4976732;28;20224;-83
2023/07/11 04:36:34;;;;;;;2.77;2.00;;;;;;;18.56;87.64;100632.34;4976597;28;20204;-81
2023/07/11 04:39:00;;;;;;;2.30;2.20;;;;;;;18.61;87.89;100629.47;4975739;28;20219;-84
2023/07/11 04:41:27;;;;;;;3.60;2.23;;;;;;;18.64;88.15;100627.53;4977048;28;20208;-84
2023/07/11 04:43:53;;;;;;;3.03;2.63;;;;;;;18.61;88.54;100638.28;4976258;28;20291;-84
2023/07/11 04:46:20;;;;;;;5.10;2.17;;;;;;;18.68;88.04;100635.34;4975776;28;20207;-83
2023/07/11 04:48:48;;;;;;;2.80;2.03;;;;;;;18.74;88.27;100633.22;4976767;28;20275;-84
2023/07/11 04:51:14;;;;;;;4.10;2.07;;;;;;;18.80;88.03;100640.03;4976002;28;20713;-84
2023/07/11 04:53:41;;;;;;;8.80;3.37;;;;;;;18.78;87.12;100652.44;4975502;28;20291;-84
2023/07/11 04:56:09;;;;;;;4.93;2.60;;;;;;;18.82;87.27;100664.63;4976732;28;20200;-83
2023/07/11 04:58:36;;;;;;;6.73;2.43;;;;;;;18.78;87.23;100650.66;4976291;28;20228;-84
2023/07/11 05:01:04;;;;;;;5.17;2.30;;;;;;;18.80;87.07;100653.25;4976352;28;20207;-84
2023/07/11 05:03:30;;;;;;;7.27;3.30;;;;;;;18.82;87.82;100643.47;4975990;28;20205;-83
2023/07/11 05:05:59;;;;;;;2.47;2.13;;;;;;;18.87;87.28;100648.50;4976833;28;20728;-85
2023/07/11 05:08:25;;;;;;;2.90;2.60;;;;;;;18.94;88.24;100637.53;4979261;28;20697;-84
2023/07/11 05:10:53;;;;;;;3.93;2.00;;;;;;;18.96;88.80;100629.53;4976119;28;20205;-83
2023/07/11 05:13:20;;;;;;;2.70;2.50;;;;;;;18.98;88.14;100628.50;4960397;28;20208;-83
2023/07/11 05:15:46;;;;;;;2.53;2.03;;;;;;;18.95;88.16;100628.69;4960451;28;20284;-84
2023/07/11 05:18:13;;;;;;;4.80;2.20;;;;;;;19.03;88.32;100620.38;4960708;28;20272;-84
2023/07/11 05:20:39;;;;;;;3.20;2.00;;;;;;;19.11;88.19;100626.13;4976772;28;20279;-81
2023/07/11 05:23:07;;;;;;;3.00;2.10;;;;;;;19.17;88.17;100628.44;4979086;28;20200;-84
2023/07/11 05:25:36;;;;;;;2.50;2.00;;;;;;;19.22;88.97;100615.81;4979788;28;20212;-83
2023/07/11 05:28:03;;;;;;;2.23;1.90;;;;;;;19.26;89.19;100605.91;4979703;28;20290;-83
2023/07/11 05:30:29;;;;;;;5.73;2.20;;;;;;;19.29;89.92;100591.69;4978407;28;20200;-81
2023/07/11 05:32:56;;;;;;;4.50;2.10;;;;;;;19.37;89.89;100571.81;4976647;28;20200;-82
2023/07/11 05:35:22;;;;;;;2.40;2.03;;;;;;;19.46;89.26;100586.34;4979247;28;20626;-84
2023/07/11 05:37:48;;;;;;;2.60;2.10;;;;;;;19.52;89.27;100593.94;4978429;28;20225;-84
2023/07/11 05:40:16;;;;;;;3.00;2.60;;;;;;;19.53;89.06;100593.03;4979382;28;20207;-84
2023/07/11 05:42:43;;;;;;;2.60;2.20;;;;;;;19.47;88.35;100614.53;4964087;28;20235;-82
2023/07/11 05:45:10;;;;;;;4.40;2.30;;;;;;;19.49;89.81;100587.97;4958051;28;20201;-84
2023/07/11 05:47:37;;;;;;;3.20;2.23;;;;;;;19.55;89.32;100587.66;4974904;28;20772;-82
2023/07/11 05:50:03;;;;;;;3.10;1.97;;;;;;;19.52;90.04;100570.09;4978438;28;20211;-82
2023/07/11 05:52:30;;;;;;;3.60;2.23;;;;;;;19.59;88.20;100613.03;4980202;28;20204;-82
2023/07/11 05:54:56;;;;;;;4.47;2.10;;;;;;;19.65;88.98;100608.25;4979025;28;20295;-84
2023/07/11 05:57:24;;;;;;;2.00;1.90;;;;;;;19.64;89.55;100584.47;4979330;28;20224;-85
2023/07/11 05:59:50;;;;;;;2.30;2.07;;;;;;;19.69;89.87;100579.81;4979798;28;20263;-85
2023/07/11 06:02:16;;;;;;;4.97;2.20;;;;;;;19.72;88.73;100584.09;4978940;28;20253;-85
2023/07/11 06:04:43;;;;;;;3.10;2.00;;;;;;;19.78;88.52;100591.69;4979193;28;20209;-82
2023/07/11 06:07:09;;;;;;;3.00;2.40;;;;;;;19.73;89.27;100589.31;4978381;28;20224;-84
2023/07/11 06:09:35;;;;;;;2.30;2.10;;;;;;;19.70;88.27;100589.47;4978929;28;20211;-83
2023/07/11 06:12:02;;;;;;;3.90;2.17;;;;;;;19.76;88.87;100586.50;4979473;28;20269;-84
2023/07/11 06:14:29;;;;;;;3.63;2.17;;;;;;;19.83;87.40;100611.72;4978925;28;20238;-85
2023/07/11 06:16:56;;;;;;;3.77;2.10;;;;;;;19.92;87.01;100625.38;4978810;28;20282;-83
2023/07/11 06:19:22;;;;;;;3.77;2.40;;;;;;;20.10;86.13;100632.34;4978967;28;20200;-83
2023/07/11 06:21:48;;;;;;;2.87;2.00;;;;;;;20.19;86.70;100633.59;4977053;28;20202;-85
2023/07/11 06:24:15;;;;;;;2.53;2.20;;;;;;;20.31;86.43;100630.25;4976052;28;20201;-85
2023/07/11 06:26:41;;;;;;;3.40;2.27;;;;;;;20.35;85.43;100653.00;4979424;28;20220;-85
2023/07/11 06:29:08;;;;;;;2.73;2.47;;;;;;;20.51;84.21;100660.94;4979525;28;20209;-86
2023/07/11 06:31:35;;;;;;;5.33;2.40;;;;;;;20.60;82.78;100713.50;4979296;28;20217;-83
2023/07/11 06:34:02;;;;;;;3.60;2.10;;;;;;;20.58;86.14;100680.88;4979163;28;20615;-86
2023/07/11 06:36:28;;;;;;;3.17;1.97;;;;;;;20.64;85.50;100661.16;4979590;28;20352;-86
2023/07/11 06:38:55;;;;;;;7.30;2.20;;;;;;;20.74;83.36;100691.50;4979416;28;20224;-87
2023/07/11 06:41:21;;;;;;;2.47;2.10;;;;;;;20.79;81.45;100723.06;4979141;28;20204;-83
2023/07/11 06:43:47;;;;;;;2.53;2.33;;;;;;;20.89;82.38;100728.72;4981962;28;20208;-85
2023/07/11 06:46:14;;;;;;;2.67;1.93;;;;;;;20.98;85.73;100667.16;4980791;28;20674;-85
2023/07/11 06:48:42;;;;;;;4.67;2.30;;;;;;;21.06;85.65;100664.03;4980155;28;20227;-86
2023/07/11 06:51:09;;;;;;;3.17;2.50;;;;;;;21.14;83.68;100670.59;4980745;28;20214;-83
2023/07/11 06:53:36;;;;;;;8.77;3.83;;;;;;;21.21;81.17;100726.84;4978296;28;20646;-83
2023/07/11 06:56:03;;;;;;;3.80;2.20;;;;;;;21.24;81.78;100739.94;4980016;28;20228;-83
2023/07/11 06:58:30;;;;;;;3.10;2.30;;;;;;;21.29;77.06;100812.22;4979648;28;20280;-83
2023/07/11 07:01:00;;;;;;;7.33;2.73;;;;;;;21.42;76.36;100849.53;4976787;28;20262;-84
2023/07/11 07:03:26;;;;;;;4.73;2.47;;;;;;;21.53;76.15;100879.03;4979591;28;20208;-84
2023/07/11 07:05:55;;;;;;;2.80;2.40;;;;;;;21.65;76.05;100881.94;4979245;28;20204;-84
2023/07/11 07:08:23;;;;;;;2.53;2.30;;;;;;;21.71;75.81;100884.22;4979850;28;20280;-85
2023/07/11 07:10:50;;;;;;;3.20;2.40;;;;;;;21.80;74.30;100912.91;4985212;28;20658;-84
2023/07/11 07:13:18;;;;;;;3.07;2.53;;;;;;;21.84;76.18;100873.72;4983862;28;20212;-84
2023/07/11 07:15:47;;;;;;;2.87;2.43;;;;;;;21.89;76.26;100863.69;4991110;28;20227;-84
2023/07/11 07:18:13;;;;;;;2.67;2.23;;;;;;;21.95;77.01;100837.56;4970558;28;20228;-84
2023/07/11 07:20:40;;;;;;;2.80;2.40;;;;;;;22.03;76.76;100831.81;4977859;28;20197;-84
2023/07/11 07:23:08;;;;;;;2.57;2.00;;;;;;;22.07;76.66;100830.66;4973803;28;20262;-85
2023/07/11 07:25:34;;;;;;;3.60;2.57;;;;;;;22.15;71.86;100896.69;4957878;28;20235;-84
2023/07/11 07:28:00;;;;;;;2.47;2.07;;;;;;;22.26;74.33;100899.59;4975323;28;20694;-85
2023/07/11 07:30:27;;;;;;;2.83;2.63;;;;;;;22.32;76.04;100859.31;4978060;28;20208;-85
2023/07/11 07:32:53;;;;;;;2.30;2.10;;;;;;;22.37;74.35;100869.66;4978573;28;20228;-82
2023/07/11 07:35:19;;;;;;;3.00;2.40;;;;;;;22.36;70.30;100958.41;4978531;28;20250;-85
2023/07/11 07:37:46;;;;;;;3.10;2.63;;;;;;;22.47;71.92;100947.09;4975122;28;20933;-84
2023/07/11 07:40:14;;;;;;;3.33;2.30;;;;;;;22.49;74.84;100903.47;4976551;28;20595;-84
2023/07/11 07:42:41;;;;;;;2.53;2.33;;;;;;;22.58;71.75;100934.00;4985069;28;20214;-81
2023/07/11 07:45:08;;;;;;;6.17;2.80;;;;;;;22.61;69.89;100987.03;4959012;28;20197;-82
2023/07/11 07:47:35;;;;;;;3.73;2.60;;;;;;;22.69;70.27;101014.03;4958033;28;20229;-85
2023/07/11 07:50:01;;;;;;;4.07;2.50;;;;;;;22.79;71.83;100955.75;4958687;28;20232;-84
2023/07/11 07:52:27;;;;;;;4.23;2.53;;;;;;;22.86;72.20;100933.16;4969941;28;20208;-85
2023/07/11 07:54:54;;;;;;;2.63;2.43;;;;;;;22.93;72.68;100914.97;4976190;28;20265;-85
2023/07/11 07:57:21;;;;;;;3.40;2.60;;;;;;;23.04;69.43;100955.13;4976961;28;20216;-83
2023/07/11 07:59:48;;;;;;;3.57;3.27;;;;;;;23.13;71.42;100945.69;4977769;28;20200;-85
2023/07/11 08:02:14;;;;;;;2.93;2.67;;;;;;;23.17;71.38;100920.56;4976568;28;20266;-84
2023/07/11 08:04:40;;;;;;;2.87;2.50;;;;;;;23.23;69.32;100944.19;4976603;28;20242;-83
2023/07/11 08:07:07;;;;;;;3.13;2.77;;;;;;;23.28;71.39;100927.88;4979003;28;20275;-82
2023/07/11 08:09:34;;;;;;;3.13;2.93;;;;;;;23.34;68.94;100986.09;4974396;28;20205;-82
2023/07/11 08:12:05;;;;;;;2.80;2.60;;;;;;;23.40;67.13;101013.19;4975624;28;20273;-83
2023/07/11 08:14:36;;;;;;;3.70;2.87;;;;;;;23.52;67.55;101011.56;4975870;28;20265;-83
2023/07/11 08:17:02;;;;;;;3.00;2.70;;;;;;;23.62;68.56;101011.81;4974415;28;20250;-84
2023/07/11 08:19:29;;;;;;;2.90;2.70;;;;;;;23.64;66.13;101043.72;4977047;28;20250;-85
2023/07/11 08:21:55;;;;;;;3.37;2.87;;;;;;;23.70;66.76;101053.97;4975683;28;20647;-84
2023/07/11 08:24:21;;;;;;;3.03;2.80;;;;;;;23.74;67.36;101027.00;4975097;28;20197;-84
2023/07/11 08:26:48;;;;;;;3.33;3.13;;;;;;;23.77;68.31;101010.88;4976139;28;20196;-83
2023/07/11 08:29:14;;;;;;;3.23;2.93;;;;;;;23.82;67.51;101020.38;4975257;28;20279;-85
2023/07/11 08:31:42;;;;;;;3.20;3.00;;;;;;;23.87;66.09;101028.94;4975794;28;20206;-85
2023/07/11 08:34:08;;;;;;;3.20;3.00;;;;;;;23.91;63.60;101073.97;4976439;28;20734;-86
2023/07/11 08:36:34;;;;;;;3.37;3.07;;;;;;;23.99;63.37;101103.66;4976054;28;20698;-84
2023/07/11 08:39:01;;;;;;;4.57;3.00;;;;;;;24.07;62.82;101136.97;4975134;28;20266;-82
2023/07/11 08:41:34;;;;;;;3.20;2.90;;;;;;;24.15;64.04;101121.34;4977923;28;20213;-84
2023/07/11 08:44:05;;;;;;;3.67;3.30;;;;;;;24.23;64.53;101089.66;4979388;28;20251;-83
2023/07/11 08:46:38;;;;;;;4.03;3.17;;;;;;;24.29;64.64;101091.94;4980955;28;20205;-83
2023/07/11 08:49:07;;;;;;;3.10;2.90;;;;;;;24.34;62.50;101127.19;4981480;28;20663;-83
2023/07/11 08:51:37;;;;;;;3.30;3.00;;;;;;;24.38;60.35;101133.19;4980981;28;20650;-83
2023/07/11 08:54:11;;;;;;;3.90;3.30;;;;;;;24.45;62.63;101149.63;4977720;28;20200;-83
2023/07/11 08:56:40;;;;;;;3.60;3.30;;;;;;;24.48;63.22;101094.25;4974258;28;20771;-84
2023/07/11 08:59:13;;;;;;;3.07;2.77;;;;;;;24.55;64.91;101042.16;4985721;28;20195;-85
2023/07/11 09:01:45;;;;;;;4.17;3.83;;;;;;;24.60;66.06;100991.16;4960617;28;20646;-84
2023/07/11 09:04:17;;;;;;;3.27;3.07;;;;;;;24.63;65.74;100952.69;4959901;28;20210;-80
2023/07/11 09:06:50;;;;;;;3.97;3.57;;;;;;;24.67;62.95;101072.50;4964786;28;20254;-83
2023/07/11 09:09:16;;;;;;;3.77;3.57;;;;;;;24.73;61.28;101089.94;4972405;28;20574;-82
2023/07/11 09:11:52;;;;;;;3.83;3.37;;;;;;;24.82;66.13;101013.69;4973442;28;20206;-83
2023/07/11 09:14:30;;;;;;;3.10;2.90;;;;;;;24.86;62.17;101082.78;4978216;28;20216;-82
2023/07/11 09:17:01;;;;;;;3.40;3.17;;;;;;;24.98;65.94;101027.66;4978467;28;20628;-83
2023/07/11 09:19:42;;;;;;;3.60;3.30;;;;;;;25.07;60.60;101090.28;4979849;28;20203;-86
2023/07/11 09:22:18;;;;;;;3.83;3.43;;;;;;;25.12;61.18;101134.41;4977948;28;20204;-83
2023/07/11 09:24:52;;;;;;;3.53;3.23;;;;;;;25.20;59.54;101152.59;4979445;28;20335;-84
2023/07/11 09:27:23;;;;;;;3.37;3.07;;;;;;;25.28;58.69;101170.81;4979083;28;20247;-84
2023/07/11 09:29:50;;;;;;;3.77;3.47;;;;;;;25.27;56.60;101226.06;4979905;28;20587;-84
2023/07/11 09:32:18;;;;;;;2.87;2.73;;;;;;;25.33;55.11;101276.44;4979792;28;20214;-84
2023/07/11 09:34:48;;;;;;;3.27;3.07;;;;;;;25.43;58.84;101228.56;4979746;28;20257;-83
2023/07/11 09:37:26;;;;;;;3.43;3.13;;;;;;;25.50;56.41;101240.50;4985875;28;20231;-84
2023/07/11 09:39:57;;;;;;;3.60;3.30;;;;;;;25.52;56.56;101261.81;4968817;28;20284;-85
2023/07/11 09:42:35;;;;;;;3.87;3.40;;;;;;;25.50;54.41;101287.78;4981112;28;20211;-84
2023/07/11 09:45:08;;;;;;;3.40;3.20;;;;;;;25.51;54.78;101330.47;4980436;28;20211;-85
2023/07/11 09:47:36;;;;;;;3.47;3.17;;;;;;;25.55;55.16;101283.84;5006278;23;20240;-82
2023/07/11 09:50:21;;;;;;;3.70;2.90;;;;;;;25.67;57.01;101276.78;5019126;28;20210;-82
2023/07/11 09:52:48;;;;;;;3.60;3.30;;;;;;;25.69;56.19;101309.63;5010158;28;20258;-82
2023/07/11 09:55:24;;;;;;;3.17;2.97;;;;;;;25.77;58.01;101244.91;5018010;28;20202;-79
2023/07/11 09:57:51;;;;;;;3.70;3.30;;;;;;;25.81;54.51;101254.44;5009835;28;20223;-80
2023/07/11 10:00:18;;;;;;;4.77;4.10;;;;;;;25.88;55.79;101252.19;4998463;28;20212;-79
2023/07/11 10:02:46;;;;;;;3.77;3.47;;;;;;;25.93;60.44;101164.47;4986329;28;20208;-79
2023/07/11 10:05:16;;;;;;;4.17;3.70;;;;;;;26.01;58.47;101148.72;4996054;28;20211;-78
2023/07/11 10:07:43;;;;;;;3.93;3.63;;;;;;;26.10;59.06;101180.13;4996328;28;20637;-78
2023/07/11 10:10:14;;;;;;;4.07;3.77;;;;;;;26.16;54.03;101267.16;4998433;28;20203;-79
2023/07/11 10:12:43;;;;;;;3.60;3.30;;;;;;;26.23;54.30;101265.75;4990742;28;20204;-80
2023/07/11 10:15:15;;;;;;;3.70;3.50;;;;;;;26.33;54.93;101249.88;4977728;28;20204;-79
2023/07/11 10:17:43;;;;;;;3.93;3.63;;;;;;;26.37;53.98;101255.88;4978167;28;20223;-80
2023/07/11 10:20:18;;;;;;;4.57;4.17;;;;;;;26.42;54.14;101245.69;4978448;28;20200;-79
2023/07/11 10:22:48;;;;;;;4.33;4.03;;;;;;;26.38;54.12;101281.66;4977498;28;20204;-79
2023/07/11 10:25:17;;;;;;;4.47;4.17;;;;;;;26.48;54.92;101223.81;4976960;28;20251;-78
2023/07/11 10:27:49;;;;;;;4.53;4.23;;;;;;;26.48;55.63;101200.59;4977256;28;20223;-79
2023/07/11 10:30:27;;;;;;;3.77;3.57;;;;;;;26.47;53.82;101235.50;4998028;28;20203;-80
2023/07/11 10:32:58;;;;;;;4.37;4.13;;;;;;;26.57;56.78;101214.25;4993776;28;20234;-79
2023/07/11 10:35:26;;;;;;;4.30;4.00;;;;;;;26.66;56.24;101136.78;4993159;28;20207;-79
2023/07/11 10:37:56;;;;;;;4.40;4.20;;;;;;;26.65;55.57;101159.16;4987444;28;20235;-79
2023/07/11 10:40:27;;;;;;;3.87;3.67;;;;;;;26.69;54.39;101167.84;4977436;28;20625;-78
2023/07/11 10:43:02;;;;;;;4.23;3.90;;;;;;;26.76;54.58;101185.16;4976010;28;20634;-79
2023/07/11 10:45:32;;;;;;;4.20;3.90;;;;;;;26.74;53.52;101221.94;4975629;28;20203;-78
2023/07/11 10:48:07;;;;;;;4.87;4.57;;;;;;;26.82;52.34;101261.50;4976804;28;20282;-78
2023/07/11 10:50:39;;;;;;;5.00;4.67;;;;;;;26.94;51.78;101293.63;4987689;28;20199;-78
2023/07/11 10:53:16;;;;;;;4.77;4.47;;;;;;;26.98;50.42;101355.00;4995406;28;20192;-78
2023/07/11 10:55:47;;;;;;;4.73;4.43;;;;;;;27.03;50.45;101360.91;4991098;28;20199;-82
2023/07/11 10:58:18;;;;;;;4.20;3.93;;;;;;;27.16;51.72;101323.34;4995742;28;20230;-79
2023/07/11 11:00:52;;;;;;;5.47;4.90;;;;;;;27.37;52.23;101269.94;4998240;28;20261;-79
2023/07/11 11:03:35;;;;;;;5.10;4.70;;;;;;;27.35;50.25;101267.34;4997323;28;20207;-79
2023/07/11 11:06:16;;;;;;;4.90;4.53;;;;;;;27.38;51.39;101274.34;4997442;28;20204;-81
2023/07/11 11:08:49;;;;;;;4.60;4.30;;;;;;;27.55;52.78;101236.31;4997448;28;20277;-79
2023/07/11 11:11:26;;;;;;;5.23;4.77;;;;;;;27.69;53.47;101203.91;4997690;28;20281;-80
2023/07/11 11:14:04;;;;;;;5.13;4.63;;;;;;;27.81;52.33;101199.41;4997573;28;20219;-80
2023/07/11 11:16:33;;;;;;;5.43;5.03;;;;;;;27.85;50.90;101243.78;5000046;28;20224;-79
2023/07/11 11:19:08;;;;;;;5.13;4.73;;;;;;;27.84;52.46;101204.50;5006193;28;20220;-80
2023/07/11 11:21:40;;;;;;;6.13;5.00;;;;;;;27.77;50.99;101253.41;5000488;28;20203;-83
2023/07/11 11:24:26;;;;;;;5.70;5.17;;;;;;;27.72;51.19;101249.25;4997078;28;20231;-82
2023/07/11 11:27:01;;;;;;;5.50;5.00;;;;;;;27.89;54.26;101167.47;4997734;28;20235;-80
2023/07/11 11:29:45;;;;;;;25.57;5.10;;;;;;;27.77;52.08;101184.53;4997723;28;20206;-80